sensor_id;sensor_type;location;lat;lon;timestamp;temperature;humidity
14893;DHT22;7538;53.626;9.906;2023-06-22T00:01:17;19.30;99.90
14893;DHT22;7538;53.626;9.906;2023-06-22T00:03:43;19.30;99.90
14893;DHT22;7538;53.626;9.906;2023-06-22T00:06:12;19.20;99.90
14893;DHT22;7538;53.626;9.906;2023-06-22T00:08:38;19.20;99.90
14893;DHT22;7538;53.626;9.906;2023-06-22T00:11:05;19.20;99.90
14893;DHT22;7538;53.626;9.906;2023-06-22T00:13:32;19.10;99.90
14893;DHT22;7538;53.626;9.906;2023-06-22T00:15:59;19.10;99.90
14893;DHT22;7538;53.626;9.906;2023-06-22T00:18:25;19.10;99.90
14893;DHT22;7538;53.626;9.906;2023-06-22T00:20:54;19.10;99.90
14893;DHT22;7538;53.626;9.906;2023-06-22T00:23:24;19.10;99.90
14893;DHT22;7538;53.626;9.906;2023-06-22T00:25:52;19.10;99.90
14893;DHT22;7538;53.626;9.906;2023-06-22T00:28:18;19.00;99.90
14893;DHT22;7538;53.626;9.906;2023-06-22T00:30:45;19.00;99.90
14893;DHT22;7538;53.626;9.906;2023-06-22T00:33:13;19.00;99.90
14893;DHT22;7538;53.626;9.906;2023-06-22T00:35:39;19.00;99.90
14893;DHT22;7538;53.626;9.906;2023-06-22T00:38:06;18.90;99.90
14893;DHT22;7538;53.626;9.906;2023-06-22T00:40:35;18.90;99.90
14893;DHT22;7538;53.626;9.906;2023-06-22T00:43:02;18.90;99.90
14893;DHT22;7538;53.626;9.906;2023-06-22T00:45:28;18.90;99.90
14893;DHT22;7538;53.626;9.906;2023-06-22T00:47:57;18.90;99.90
14893;DHT22;7538;53.626;9.906;2023-06-22T00:50:26;18.90;99.90
14893;DHT22;7538;53.626;9.906;2023-06-22T00:52:54;18.90;99.90
14893;DHT22;7538;53.626;9.906;2023-06-22T00:55:23;18.80;99.90
14893;DHT22;7538;53.626;9.906;2023-06-22T00:57:52;18.80;99.90
14893;DHT22;7538;53.626;9.906;2023-06-22T01:00:22;18.80;99.90
14893;DHT22;7538;53.626;9.906;2023-06-22T01:02:50;18.80;99.90
14893;DHT22;7538;53.626;9.906;2023-06-22T01:05:18;18.80;99.90
14893;DHT22;7538;53.626;9.906;2023-06-22T01:07:56;18.80;99.90
14893;DHT22;7538;53.626;9.906;2023-06-22T01:10:30;18.80;99.90
14893;DHT22;7538;53.626;9.906;2023-06-22T01:13:02;18.80;99.90
14893;DHT22;7538;53.626;9.906;2023-06-22T01:15:34;18.80;99.90
14893;DHT22;7538;53.626;9.906;2023-06-22T01:18:04;18.70;99.90
14893;DHT22;7538;53.626;9.906;2023-06-22T01:20:32;18.70;99.90
14893;DHT22;7538;53.626;9.906;2023-06-22T01:23:08;18.70;99.90
14893;DHT22;7538;53.626;9.906;2023-06-22T01:25:43;18.70;99.90
14893;DHT22;7538;53.626;9.906;2023-06-22T01:28:20;18.60;99.90
14893;DHT22;7538;53.626;9.906;2023-06-22T01:30:51;18.60;99.90
14893;DHT22;7538;53.626;9.906;2023-06-22T01:33:33;18.60;99.90
14893;DHT22;7538;53.626;9.906;2023-06-22T01:36:01;18.60;99.90
14893;DHT22;7538;53.626;9.906;2023-06-22T01:38:29;18.50;99.90
14893;DHT22;7538;53.626;9.906;2023-06-22T01:40:57;18.60;99.90
14893;DHT22;7538;53.626;9.906;2023-06-22T01:43:26;18.60;99.90
14893;DHT22;7538;53.626;9.906;2023-06-22T01:45:55;18.60;99.90
14893;DHT22;7538;53.626;9.906;2023-06-22T01:48:22;18.60;99.90
14893;DHT22;7538;53.626;9.906;2023-06-22T01:50:51;18.50;99.90
14893;DHT22;7538;53.626;9.906;2023-06-22T01:53:20;18.60;99.90
14893;DHT22;7538;53.626;9.906;2023-06-22T01:55:46;18.60;99.90
14893;DHT22;7538;53.626;9.906;2023-06-22T01:58:13;18.60;99.90
14893;DHT22;7538;53.626;9.906;2023-06-22T02:00:44;18.50;99.90
14893;DHT22;7538;53.626;9.906;2023-06-22T02:03:19;18.60;99.90
14893;DHT22;7538;53.626;9.906;2023-06-22T02:05:50;18.50;99.90
14893;DHT22;7538;53.626;9.906;2023-06-22T02:08:20;18.50;99.90
14893;DHT22;7538;53.626;9.906;2023-06-22T02:10:49;18.50;99.90
14893;DHT22;7538;53.626;9.906;2023-06-22T02:13:17;18.50;99.90
14893;DHT22;7538;53.626;9.906;2023-06-22T02:15:45;18.50;99.90
14893;DHT22;7538;53.626;9.906;2023-06-22T02:18:14;18.50;99.90
14893;DHT22;7538;53.626;9.906;2023-06-22T02:20:40;17.30;99.90
14893;DHT22;7538;53.626;9.906;2023-06-22T02:23:07;18.00;99.90
14893;DHT22;7538;53.626;9.906;2023-06-22T02:25:35;18.40;99.90
14893;DHT22;7538;53.626;9.906;2023-06-22T02:28:02;18.40;99.90
14893;DHT22;7538;53.626;9.906;2023-06-22T02:30:29;18.30;99.90
14893;DHT22;7538;53.626;9.906;2023-06-22T02:32:56;18.40;99.90
14893;DHT22;7538;53.626;9.906;2023-06-22T02:35:27;18.30;99.90
14893;DHT22;7538;53.626;9.906;2023-06-22T02:37:57;19.60;99.90
14893;DHT22;7538;53.626;9.906;2023-06-22T02:40:25;18.30;99.90
14893;DHT22;7538;53.626;9.906;2023-06-22T02:42:52;18.30;99.90
14893;DHT22;7538;53.626;9.906;2023-06-22T02:45:18;18.30;99.90
14893;DHT22;7538;53.626;9.906;2023-06-22T02:47:45;18.20;99.90
14893;DHT22;7538;53.626;9.906;2023-06-22T02:50:13;18.20;99.90
14893;DHT22;7538;53.626;9.906;2023-06-22T02:52:41;18.20;99.90
14893;DHT22;7538;53.626;9.906;2023-06-22T02:55:08;18.10;99.90
14893;DHT22;7538;53.626;9.906;2023-06-22T02:57:35;18.10;99.90
14893;DHT22;7538;53.626;9.906;2023-06-22T03:00:03;18.10;99.90
14893;DHT22;7538;53.626;9.906;2023-06-22T03:02:39;18.10;99.90
14893;DHT22;7538;53.626;9.906;2023-06-22T03:05:06;18.00;99.90
14893;DHT22;7538;53.626;9.906;2023-06-22T03:07:35;18.00;99.90
14893;DHT22;7538;53.626;9.906;2023-06-22T03:10:04;18.00;99.90
14893;DHT22;7538;53.626;9.906;2023-06-22T03:12:31;18.00;99.90
14893;DHT22;7538;53.626;9.906;2023-06-22T03:14:58;18.00;99.90
14893;DHT22;7538;53.626;9.906;2023-06-22T03:17:25;18.00;99.90
14893;DHT22;7538;53.626;9.906;2023-06-22T03:19:52;17.90;99.90
14893;DHT22;7538;53.626;9.906;2023-06-22T03:22:18;17.90;99.90
14893;DHT22;7538;53.626;9.906;2023-06-22T03:24:45;17.90;99.90
14893;DHT22;7538;53.626;9.906;2023-06-22T03:27:13;17.90;99.90
14893;DHT22;7538;53.626;9.906;2023-06-22T03:29:40;17.80;99.90
14893;DHT22;7538;53.626;9.906;2023-06-22T03:32:07;17.90;99.90
14893;DHT22;7538;53.626;9.906;2023-06-22T03:34:34;17.90;99.90
14893;DHT22;7538;53.626;9.906;2023-06-22T03:37:02;17.90;99.90
14893;DHT22;7538;53.626;9.906;2023-06-22T03:39:29;17.90;99.90
14893;DHT22;7538;53.626;9.906;2023-06-22T03:41:56;18.00;99.90
14893;DHT22;7538;53.626;9.906;2023-06-22T03:44:24;18.00;99.90
14893;DHT22;7538;53.626;9.906;2023-06-22T03:46:51;18.00;99.90
14893;DHT22;7538;53.626;9.906;2023-06-22T03:49:18;18.10;99.90
14893;DHT22;7538;53.626;9.906;2023-06-22T03:51:45;18.10;99.90
14893;DHT22;7538;53.626;9.906;2023-06-22T03:54:11;18.20;99.90
14893;DHT22;7538;53.626;9.906;2023-06-22T03:56:38;18.30;99.90
14893;DHT22;7538;53.626;9.906;2023-06-22T03:59:05;18.30;99.90
14893;DHT22;7538;53.626;9.906;2023-06-22T04:01:33;18.50;99.90
14893;DHT22;7538;53.626;9.906;2023-06-22T04:04:00;18.50;99.90
14893;DHT22;7538;53.626;9.906;2023-06-22T04:06:27;18.60;99.90
14893;DHT22;7538;53.626;9.906;2023-06-22T04:08:53;18.70;99.90
14893;DHT22;7538;53.626;9.906;2023-06-22T04:11:20;18.80;99.90
14893;DHT22;7538;53.626;9.906;2023-06-22T04:13:47;18.90;99.90
14893;DHT22;7538;53.626;9.906;2023-06-22T04:16:16;18.90;99.90
14893;DHT22;7538;53.626;9.906;2023-06-22T04:18:45;19.00;99.90
14893;DHT22;7538;53.626;9.906;2023-06-22T04:21:13;19.10;99.90
14893;DHT22;7538;53.626;9.906;2023-06-22T04:23:40;19.10;99.90
14893;DHT22;7538;53.626;9.906;2023-06-22T04:26:07;19.20;99.90
14893;DHT22;7538;53.626;9.906;2023-06-22T04:28:33;19.20;99.90
14893;DHT22;7538;53.626;9.906;2023-06-22T04:31:01;19.20;99.90
14893;DHT22;7538;53.626;9.906;2023-06-22T04:33:28;19.30;99.90
14893;DHT22;7538;53.626;9.906;2023-06-22T04:35:57;19.30;99.90
14893;DHT22;7538;53.626;9.906;2023-06-22T04:38:26;19.40;99.90
14893;DHT22;7538;53.626;9.906;2023-06-22T04:40:53;19.50;99.90
14893;DHT22;7538;53.626;9.906;2023-06-22T04:43:20;19.50;99.90
14893;DHT22;7538;53.626;9.906;2023-06-22T04:45:47;19.60;99.90
14893;DHT22;7538;53.626;9.906;2023-06-22T04:48:17;19.60;99.90
14893;DHT22;7538;53.626;9.906;2023-06-22T04:50:44;19.70;99.90
14893;DHT22;7538;53.626;9.906;2023-06-22T04:53:12;19.80;99.90
14893;DHT22;7538;53.626;9.906;2023-06-22T04:55:39;19.90;99.90
14893;DHT22;7538;53.626;9.906;2023-06-22T04:58:11;20.00;99.90
14893;DHT22;7538;53.626;9.906;2023-06-22T05:00:38;20.00;99.90
14893;DHT22;7538;53.626;9.906;2023-06-22T05:03:05;20.10;99.90
14893;DHT22;7538;53.626;9.906;2023-06-22T05:05:36;20.20;99.90
14893;DHT22;7538;53.626;9.906;2023-06-22T05:08:03;20.30;99.90
14893;DHT22;7538;53.626;9.906;2023-06-22T05:10:33;20.40;99.90
14893;DHT22;7538;53.626;9.906;2023-06-22T05:13:00;20.60;99.90
14893;DHT22;7538;53.626;9.906;2023-06-22T05:15:27;20.80;99.90
14893;DHT22;7538;53.626;9.906;2023-06-22T05:17:56;20.90;99.90
14893;DHT22;7538;53.626;9.906;2023-06-22T05:20:23;21.10;99.90
14893;DHT22;7538;53.626;9.906;2023-06-22T05:22:50;21.30;99.90
14893;DHT22;7538;53.626;9.906;2023-06-22T05:25:17;21.40;99.90
14893;DHT22;7538;53.626;9.906;2023-06-22T05:27:45;21.60;99.90
14893;DHT22;7538;53.626;9.906;2023-06-22T05:30:13;21.90;99.90
14893;DHT22;7538;53.626;9.906;2023-06-22T05:32:39;21.90;99.90
14893;DHT22;7538;53.626;9.906;2023-06-22T05:35:06;22.20;99.90
14893;DHT22;7538;53.626;9.906;2023-06-22T05:37:33;22.50;99.90
14893;DHT22;7538;53.626;9.906;2023-06-22T05:40:00;22.90;99.90
14893;DHT22;7538;53.626;9.906;2023-06-22T05:42:28;23.40;99.90
14893;DHT22;7538;53.626;9.906;2023-06-22T05:44:56;23.80;99.90
14893;DHT22;7538;53.626;9.906;2023-06-22T05:47:24;24.20;99.90
14893;DHT22;7538;53.626;9.906;2023-06-22T05:49:51;24.60;99.60
14893;DHT22;7538;53.626;9.906;2023-06-22T05:52:17;25.30;97.60
14893;DHT22;7538;53.626;9.906;2023-06-22T05:54:44;26.10;96.10
14893;DHT22;7538;53.626;9.906;2023-06-22T05:57:11;26.70;94.90
14893;DHT22;7538;53.626;9.906;2023-06-22T05:59:38;27.00;91.90
14893;DHT22;7538;53.626;9.906;2023-06-22T06:02:06;27.40;90.80
14893;DHT22;7538;53.626;9.906;2023-06-22T06:04:33;27.90;88.20
14893;DHT22;7538;53.626;9.906;2023-06-22T06:07:00;27.90;85.90
14893;DHT22;7538;53.626;9.906;2023-06-22T06:09:26;27.80;87.30
14893;DHT22;7538;53.626;9.906;2023-06-22T06:11:53;27.80;87.40
14893;DHT22;7538;53.626;9.906;2023-06-22T06:14:20;28.20;86.30
14893;DHT22;7538;53.626;9.906;2023-06-22T06:16:47;28.30;84.60
14893;DHT22;7538;53.626;9.906;2023-06-22T06:19:15;28.70;83.20
14893;DHT22;7538;53.626;9.906;2023-06-22T06:21:42;28.60;83.00
14893;DHT22;7538;53.626;9.906;2023-06-22T06:24:09;28.80;83.50
14893;DHT22;7538;53.626;9.906;2023-06-22T06:26:36;29.40;80.60
14893;DHT22;7538;53.626;9.906;2023-06-22T06:29:03;29.90;79.00
14893;DHT22;7538;53.626;9.906;2023-06-22T06:31:29;30.10;76.60
14893;DHT22;7538;53.626;9.906;2023-06-22T06:33:56;29.90;76.00
14893;DHT22;7538;53.626;9.906;2023-06-22T06:36:24;29.60;76.60
14893;DHT22;7538;53.626;9.906;2023-06-22T06:38:51;29.20;77.90
14893;DHT22;7538;53.626;9.906;2023-06-22T06:41:19;28.90;79.70
14893;DHT22;7538;53.626;9.906;2023-06-22T06:43:46;28.40;80.70
14893;DHT22;7538;53.626;9.906;2023-06-22T06:46:13;28.10;80.70
14893;DHT22;7538;53.626;9.906;2023-06-22T06:48:40;27.80;82.80
14893;DHT22;7538;53.626;9.906;2023-06-22T06:51:07;27.70;84.30
14893;DHT22;7538;53.626;9.906;2023-06-22T06:53:38;27.50;83.80
14893;DHT22;7538;53.626;9.906;2023-06-22T06:56:05;27.60;84.00
14893;DHT22;7538;53.626;9.906;2023-06-22T06:58:32;27.70;83.20
14893;DHT22;7538;53.626;9.906;2023-06-22T07:00:59;27.80;83.70
14893;DHT22;7538;53.626;9.906;2023-06-22T07:03:25;28.30;83.30
14893;DHT22;7538;53.626;9.906;2023-06-22T07:05:52;28.50;82.00
14893;DHT22;7538;53.626;9.906;2023-06-22T07:08:19;28.50;80.50
14893;DHT22;7538;53.626;9.906;2023-06-22T07:10:47;28.70;81.10
14893;DHT22;7538;53.626;9.906;2023-06-22T07:13:14;29.20;78.80
14893;DHT22;7538;53.626;9.906;2023-06-22T07:15:41;29.50;78.20
14893;DHT22;7538;53.626;9.906;2023-06-22T07:18:08;30.40;77.50
14893;DHT22;7538;53.626;9.906;2023-06-22T07:20:34;31.30;75.20
14893;DHT22;7538;53.626;9.906;2023-06-22T07:23:01;32.30;73.10
14893;DHT22;7538;53.626;9.906;2023-06-22T07:25:28;33.10;70.00
14893;DHT22;7538;53.626;9.906;2023-06-22T07:28:01;34.00;66.50
14893;DHT22;7538;53.626;9.906;2023-06-22T07:30:28;35.20;65.60
14893;DHT22;7538;53.626;9.906;2023-06-22T07:32:56;36.00;59.40
14893;DHT22;7538;53.626;9.906;2023-06-22T07:35:23;36.40;58.60
14893;DHT22;7538;53.626;9.906;2023-06-22T07:37:49;37.00;58.70
14893;DHT22;7538;53.626;9.906;2023-06-22T07:40:16;37.70;58.00
14893;DHT22;7538;53.626;9.906;2023-06-22T07:42:44;37.90;55.30
14893;DHT22;7538;53.626;9.906;2023-06-22T07:45:14;38.00;53.80
14893;DHT22;7538;53.626;9.906;2023-06-22T07:47:41;38.10;52.60
14893;DHT22;7538;53.626;9.906;2023-06-22T07:50:09;38.20;53.00
14893;DHT22;7538;53.626;9.906;2023-06-22T07:52:36;37.90;51.90
14893;DHT22;7538;53.626;9.906;2023-06-22T07:55:03;37.30;52.30
14893;DHT22;7538;53.626;9.906;2023-06-22T07:57:30;36.60;52.60
14893;DHT22;7538;53.626;9.906;2023-06-22T07:59:59;36.10;53.60
14893;DHT22;7538;53.626;9.906;2023-06-22T08:02:27;35.50;52.70
14893;DHT22;7538;53.626;9.906;2023-06-22T08:04:54;34.90;53.40
14893;DHT22;7538;53.626;9.906;2023-06-22T08:07:21;34.70;54.00
14893;DHT22;7538;53.626;9.906;2023-06-22T08:09:48;34.30;53.90
14893;DHT22;7538;53.626;9.906;2023-06-22T08:12:15;34.30;53.90
14893;DHT22;7538;53.626;9.906;2023-06-22T08:14:43;34.30;54.20
14893;DHT22;7538;53.626;9.906;2023-06-22T08:17:11;34.40;54.20
14893;DHT22;7538;53.626;9.906;2023-06-22T08:19:40;34.40;53.50
14893;DHT22;7538;53.626;9.906;2023-06-22T08:22:07;34.30;54.30
14893;DHT22;7538;53.626;9.906;2023-06-22T08:24:34;34.60;54.30
14893;DHT22;7538;53.626;9.906;2023-06-22T08:27:00;34.60;54.90
14893;DHT22;7538;53.626;9.906;2023-06-22T08:29:27;34.50;54.30
14893;DHT22;7538;53.626;9.906;2023-06-22T08:31:54;34.40;54.90
14893;DHT22;7538;53.626;9.906;2023-06-22T08:34:21;34.90;54.70
14893;DHT22;7538;53.626;9.906;2023-06-22T08:36:51;35.60;54.50
14893;DHT22;7538;53.626;9.906;2023-06-22T08:39:18;36.10;52.10
14893;DHT22;7538;53.626;9.906;2023-06-22T08:41:45;36.00;52.10
14893;DHT22;7538;53.626;9.906;2023-06-22T08:44:12;36.50;52.20
14893;DHT22;7538;53.626;9.906;2023-06-22T08:46:39;36.60;50.40
14893;DHT22;7538;53.626;9.906;2023-06-22T08:49:07;37.00;50.60
14893;DHT22;7538;53.626;9.906;2023-06-22T08:51:35;37.50;48.80
14893;DHT22;7538;53.626;9.906;2023-06-22T08:54:03;38.10;48.50
14893;DHT22;7538;53.626;9.906;2023-06-22T08:56:30;38.80;48.20
14893;DHT22;7538;53.626;9.906;2023-06-22T08:58:57;39.70;47.40
14893;DHT22;7538;53.626;9.906;2023-06-22T09:01:24;40.00;45.50
14893;DHT22;7538;53.626;9.906;2023-06-22T09:03:50;40.00;45.00
14893;DHT22;7538;53.626;9.906;2023-06-22T09:06:23;39.90;45.80
14893;DHT22;7538;53.626;9.906;2023-06-22T09:08:50;39.50;45.30
14893;DHT22;7538;53.626;9.906;2023-06-22T09:11:18;39.50;45.70
14893;DHT22;7538;53.626;9.906;2023-06-22T09:13:45;40.00;45.90
14893;DHT22;7538;53.626;9.906;2023-06-22T09:16:12;40.70;43.20
14893;DHT22;7538;53.626;9.906;2023-06-22T09:18:40;41.20;43.30
14893;DHT22;7538;53.626;9.906;2023-06-22T09:21:07;40.70;43.10
14893;DHT22;7538;53.626;9.906;2023-06-22T09:23:34;40.50;44.60
14893;DHT22;7538;53.626;9.906;2023-06-22T09:26:01;40.90;43.90
14893;DHT22;7538;53.626;9.906;2023-06-22T09:28:31;41.20;43.10
14893;DHT22;7538;53.626;9.906;2023-06-22T09:30:58;41.90;42.70
14893;DHT22;7538;53.626;9.906;2023-06-22T09:33:26;41.70;41.60
14893;DHT22;7538;53.626;9.906;2023-06-22T09:35:53;41.80;41.00
14893;DHT22;7538;53.626;9.906;2023-06-22T09:38:19;42.30;41.70
14893;DHT22;7538;53.626;9.906;2023-06-22T09:40:46;42.90;41.40
14893;DHT22;7538;53.626;9.906;2023-06-22T09:43:13;43.00;39.10
14893;DHT22;7538;53.626;9.906;2023-06-22T09:45:41;42.70;39.30
14893;DHT22;7538;53.626;9.906;2023-06-22T09:48:09;42.60;40.80
14893;DHT22;7538;53.626;9.906;2023-06-22T09:50:36;42.80;39.40
14893;DHT22;7538;53.626;9.906;2023-06-22T09:53:03;43.00;39.90
14893;DHT22;7538;53.626;9.906;2023-06-22T09:55:29;43.00;40.00
14893;DHT22;7538;53.626;9.906;2023-06-22T09:57:56;43.20;39.30
14893;DHT22;7538;53.626;9.906;2023-06-22T10:00:23;43.40;39.30
14893;DHT22;7538;53.626;9.906;2023-06-22T10:02:53;43.60;38.70
14893;DHT22;7538;53.626;9.906;2023-06-22T10:05:21;43.80;37.80
14893;DHT22;7538;53.626;9.906;2023-06-22T10:07:48;43.80;37.30
14893;DHT22;7538;53.626;9.906;2023-06-22T10:10:14;43.60;37.60
14893;DHT22;7538;53.626;9.906;2023-06-22T10:12:42;42.70;37.20
14893;DHT22;7538;53.626;9.906;2023-06-22T10:15:10;41.90;38.50
14893;DHT22;7538;53.626;9.906;2023-06-22T10:17:37;40.80;39.10
14893;DHT22;7538;53.626;9.906;2023-06-22T10:20:07;39.40;39.70
14893;DHT22;7538;53.626;9.906;2023-06-22T10:22:38;38.60;41.00
14893;DHT22;7538;53.626;9.906;2023-06-22T10:25:06;38.30;42.00
14893;DHT22;7538;53.626;9.906;2023-06-22T10:27:33;38.10;41.40
14893;DHT22;7538;53.626;9.906;2023-06-22T10:29:59;37.80;42.20
14893;DHT22;7538;53.626;9.906;2023-06-22T10:32:26;37.50;42.80
14893;DHT22;7538;53.626;9.906;2023-06-22T10:34:54;37.70;43.30
14893;DHT22;7538;53.626;9.906;2023-06-22T10:37:23;38.20;42.20
14893;DHT22;7538;53.626;9.906;2023-06-22T10:39:49;38.60;41.80
14893;DHT22;7538;53.626;9.906;2023-06-22T10:42:16;38.70;41.40
14893;DHT22;7538;53.626;9.906;2023-06-22T10:44:43;38.30;41.70
14893;DHT22;7538;53.626;9.906;2023-06-22T10:47:10;38.20;42.40
14893;DHT22;7538;53.626;9.906;2023-06-22T10:49:37;38.00;42.80
14893;DHT22;7538;53.626;9.906;2023-06-22T10:52:06;38.30;43.40
14893;DHT22;7538;53.626;9.906;2023-06-22T10:54:34;38.60;42.30
14893;DHT22;7538;53.626;9.906;2023-06-22T10:57:02;38.70;42.60
14893;DHT22;7538;53.626;9.906;2023-06-22T10:59:29;38.00;42.20
14893;DHT22;7538;53.626;9.906;2023-06-22T11:01:56;37.50;43.10
14893;DHT22;7538;53.626;9.906;2023-06-22T11:04:23;37.40;43.70
14893;DHT22;7538;53.626;9.906;2023-06-22T11:06:50;37.40;43.80
14893;DHT22;7538;53.626;9.906;2023-06-22T11:09:17;37.50;43.60
14893;DHT22;7538;53.626;9.906;2023-06-22T11:11:48;37.20;43.00
14893;DHT22;7538;53.626;9.906;2023-06-22T11:14:15;36.40;44.30
14893;DHT22;7538;53.626;9.906;2023-06-22T11:16:42;36.20;45.40
14893;DHT22;7538;53.626;9.906;2023-06-22T11:19:09;36.10;45.20
14893;DHT22;7538;53.626;9.906;2023-06-22T11:21:36;36.30;45.40
14893;DHT22;7538;53.626;9.906;2023-06-22T11:24:03;35.80;45.70
14893;DHT22;7538;53.626;9.906;2023-06-22T11:26:30;35.40;46.30
14893;DHT22;7538;53.626;9.906;2023-06-22T11:28:58;34.70;46.70
14893;DHT22;7538;53.626;9.906;2023-06-22T11:31:25;34.10;48.20
14893;DHT22;7538;53.626;9.906;2023-06-22T11:33:52;33.30;48.50
14893;DHT22;7538;53.626;9.906;2023-06-22T11:36:19;32.80;49.30
14893;DHT22;7538;53.626;9.906;2023-06-22T11:38:46;32.20;50.30
14893;DHT22;7538;53.626;9.906;2023-06-22T11:41:13;31.80;51.00
14893;DHT22;7538;53.626;9.906;2023-06-22T11:43:40;31.40;51.90
14893;DHT22;7538;53.626;9.906;2023-06-22T11:46:08;31.90;53.30
14893;DHT22;7538;53.626;9.906;2023-06-22T11:48:35;31.30;52.90
14893;DHT22;7538;53.626;9.906;2023-06-22T11:51:02;31.30;53.40
14893;DHT22;7538;53.626;9.906;2023-06-22T11:53:29;31.40;53.70
14893;DHT22;7538;53.626;9.906;2023-06-22T11:55:56;31.50;53.40
14893;DHT22;7538;53.626;9.906;2023-06-22T11:58:23;31.30;53.70
14893;DHT22;7538;53.626;9.906;2023-06-22T12:00:50;31.40;54.40
14893;DHT22;7538;53.626;9.906;2023-06-22T12:03:19;31.20;53.90
14893;DHT22;7538;53.626;9.906;2023-06-22T12:05:46;31.00;55.60
14893;DHT22;7538;53.626;9.906;2023-06-22T12:08:13;31.10;56.60
14893;DHT22;7538;53.626;9.906;2023-06-22T12:10:40;31.20;55.60
14893;DHT22;7538;53.626;9.906;2023-06-22T12:13:07;31.30;55.70
14893;DHT22;7538;53.626;9.906;2023-06-22T12:15:34;31.40;55.00
14893;DHT22;7538;53.626;9.906;2023-06-22T12:18:01;31.40;55.50
14893;DHT22;7538;53.626;9.906;2023-06-22T12:20:29;31.30;55.70
14893;DHT22;7538;53.626;9.906;2023-06-22T12:22:57;31.30;55.70
14893;DHT22;7538;53.626;9.906;2023-06-22T12:25:23;31.40;56.80
14893;DHT22;7538;53.626;9.906;2023-06-22T12:27:50;31.40;56.10
14893;DHT22;7538;53.626;9.906;2023-06-22T12:30:17;31.50;56.20
14893;DHT22;7538;53.626;9.906;2023-06-22T12:32:44;31.50;56.10
14893;DHT22;7538;53.626;9.906;2023-06-22T12:35:11;31.50;56.30
14893;DHT22;7538;53.626;9.906;2023-06-22T12:37:40;31.30;56.70
14893;DHT22;7538;53.626;9.906;2023-06-22T12:40:09;31.00;56.80
14893;DHT22;7538;53.626;9.906;2023-06-22T12:42:36;30.60;57.20
14893;DHT22;7538;53.626;9.906;2023-06-22T12:45:04;30.40;58.30
14893;DHT22;7538;53.626;9.906;2023-06-22T12:47:30;30.30;58.30
14893;DHT22;7538;53.626;9.906;2023-06-22T12:49:57;30.30;58.60
14893;DHT22;7538;53.626;9.906;2023-06-22T12:52:24;30.30;58.60
14893;DHT22;7538;53.626;9.906;2023-06-22T12:54:52;30.10;58.70
14893;DHT22;7538;53.626;9.906;2023-06-22T12:57:19;30.10;58.80
14893;DHT22;7538;53.626;9.906;2023-06-22T12:59:46;30.20;59.70
14893;DHT22;7538;53.626;9.906;2023-06-22T13:02:13;30.00;59.60
14893;DHT22;7538;53.626;9.906;2023-06-22T13:04:40;30.10;59.80
14893;DHT22;7538;53.626;9.906;2023-06-22T13:07:08;30.10;60.80
14893;DHT22;7538;53.626;9.906;2023-06-22T13:09:36;30.30;59.70
14893;DHT22;7538;53.626;9.906;2023-06-22T13:12:05;30.30;59.40
14893;DHT22;7538;53.626;9.906;2023-06-22T13:14:32;30.60;61.00
14893;DHT22;7538;53.626;9.906;2023-06-22T13:16:59;30.00;60.10
14893;DHT22;7538;53.626;9.906;2023-06-22T13:19:26;30.00;61.40
14893;DHT22;7538;53.626;9.906;2023-06-22T13:21:57;30.10;60.40
14893;DHT22;7538;53.626;9.906;2023-06-22T13:24:24;30.20;60.40
14893;DHT22;7538;53.626;9.906;2023-06-22T13:26:51;30.00;61.00
14893;DHT22;7538;53.626;9.906;2023-06-22T13:29:19;29.90;60.00
14893;DHT22;7538;53.626;9.906;2023-06-22T13:31:46;29.90;60.50
14893;DHT22;7538;53.626;9.906;2023-06-22T13:34:13;30.00;61.20
14893;DHT22;7538;53.626;9.906;2023-06-22T13:36:39;30.00;62.60
14893;DHT22;7538;53.626;9.906;2023-06-22T13:39:06;29.70;62.40
14893;DHT22;7538;53.626;9.906;2023-06-22T13:41:33;29.80;62.30
14893;DHT22;7538;53.626;9.906;2023-06-22T13:44:00;29.70;61.80
14893;DHT22;7538;53.626;9.906;2023-06-22T13:46:28;29.60;61.90
14893;DHT22;7538;53.626;9.906;2023-06-22T13:48:55;29.50;62.10
14893;DHT22;7538;53.626;9.906;2023-06-22T13:51:22;29.60;61.70
14893;DHT22;7538;53.626;9.906;2023-06-22T13:53:48;29.50;62.20
14893;DHT22;7538;53.626;9.906;2023-06-22T13:56:15;29.30;62.70
14893;DHT22;7538;53.626;9.906;2023-06-22T13:58:42;29.40;63.30
14893;DHT22;7538;53.626;9.906;2023-06-22T14:01:09;29.40;63.20
14893;DHT22;7538;53.626;9.906;2023-06-22T14:03:37;29.50;63.80
14893;DHT22;7538;53.626;9.906;2023-06-22T14:06:04;29.50;64.00
14893;DHT22;7538;53.626;9.906;2023-06-22T14:08:32;29.50;62.90
14893;DHT22;7538;53.626;9.906;2023-06-22T14:10:58;29.50;64.50
14893;DHT22;7538;53.626;9.906;2023-06-22T14:13:25;29.30;65.30
14893;DHT22;7538;53.626;9.906;2023-06-22T14:15:52;29.20;65.10
14893;DHT22;7538;53.626;9.906;2023-06-22T14:18:19;29.10;65.50
14893;DHT22;7538;53.626;9.906;2023-06-22T14:20:49;29.00;65.90
14893;DHT22;7538;53.626;9.906;2023-06-22T14:23:16;29.10;65.80
14893;DHT22;7538;53.626;9.906;2023-06-22T14:25:42;29.00;65.50
14893;DHT22;7538;53.626;9.906;2023-06-22T14:28:09;29.10;65.40
14893;DHT22;7538;53.626;9.906;2023-06-22T14:30:36;28.90;66.20
14893;DHT22;7538;53.626;9.906;2023-06-22T14:33:03;28.90;67.20
14893;DHT22;7538;53.626;9.906;2023-06-22T14:35:30;29.00;67.80
14893;DHT22;7538;53.626;9.906;2023-06-22T14:37:58;28.90;68.10
14893;DHT22;7538;53.626;9.906;2023-06-22T14:40:25;28.90;68.50
14893;DHT22;7538;53.626;9.906;2023-06-22T14:42:52;28.90;69.90
14893;DHT22;7538;53.626;9.906;2023-06-22T14:45:18;29.00;69.80
14893;DHT22;7538;53.626;9.906;2023-06-22T14:47:45;29.10;69.30
14893;DHT22;7538;53.626;9.906;2023-06-22T14:50:12;29.10;68.10
14893;DHT22;7538;53.626;9.906;2023-06-22T14:52:39;29.10;68.90
14893;DHT22;7538;53.626;9.906;2023-06-22T14:55:08;29.10;69.80
14893;DHT22;7538;53.626;9.906;2023-06-22T14:57:35;29.10;70.20
14893;DHT22;7538;53.626;9.906;2023-06-22T15:00:02;29.00;67.70
14893;DHT22;7538;53.626;9.906;2023-06-22T15:02:29;28.70;69.20
14893;DHT22;7538;53.626;9.906;2023-06-22T15:04:55;28.40;70.70
14893;DHT22;7538;53.626;9.906;2023-06-22T15:07:22;28.20;70.50
14893;DHT22;7538;53.626;9.906;2023-06-22T15:09:49;28.10;71.30
14893;DHT22;7538;53.626;9.906;2023-06-22T15:12:17;28.00;71.40
14893;DHT22;7538;53.626;9.906;2023-06-22T15:14:44;28.10;72.50
14893;DHT22;7538;53.626;9.906;2023-06-22T15:17:11;28.00;74.20
14893;DHT22;7538;53.626;9.906;2023-06-22T15:19:40;28.00;75.10
14893;DHT22;7538;53.626;9.906;2023-06-22T15:22:07;27.80;75.20
14893;DHT22;7538;53.626;9.906;2023-06-22T15:24:34;27.60;76.10
14893;DHT22;7538;53.626;9.906;2023-06-22T15:27:02;27.60;77.30
14893;DHT22;7538;53.626;9.906;2023-06-22T15:29:30;27.60;78.50
14893;DHT22;7538;53.626;9.906;2023-06-22T15:31:59;27.60;78.60
14893;DHT22;7538;53.626;9.906;2023-06-22T15:34:26;27.70;79.00
14893;DHT22;7538;53.626;9.906;2023-06-22T15:36:53;27.70;79.20
14893;DHT22;7538;53.626;9.906;2023-06-22T15:39:20;27.60;78.20
14893;DHT22;7538;53.626;9.906;2023-06-22T15:41:48;27.60;79.40
14893;DHT22;7538;53.626;9.906;2023-06-22T15:44:15;27.20;79.30
14893;DHT22;7538;53.626;9.906;2023-06-22T15:46:43;27.10;80.30